Time;durP1;ratioP1;P1;durP2;ratioP2;P2;SDS_P1;SDS_P2;PMS_P1;PMS_P2;Temp;Humidity;BMP_temperature;BMP_pressure;BME280_temperature;BME280_humidity;BME280_pressure;Samples;Min_cycle;Max_cycle;Signal;HPM_P1;HPM_P2
2021/10/19 00:00:10;;;;;;;2.60;1.00;;;-0.60;99.90;;;;;;5133704;27;20020;-65
2021/10/19 00:02:36;;;;;;;1.15;0.77;;;-0.60;99.90;;;;;;5133349;27;20035;-65
2021/10/19 00:05:03;;;;;;;2.03;0.80;;;-0.60;99.90;;;;;;5133336;27;20019;-65
2021/10/19 00:07:29;;;;;;;0.90;0.73;;;-0.60;99.90;;;;;;5133058;27;20424;-65
2021/10/19 00:09:55;;;;;;;1.38;0.63;;;-0.60;99.90;;;;;;5133314;27;20098;-65
2021/10/19 00:12:22;;;;;;;3.47;0.77;;;-0.60;99.90;;;;;;5132978;27;20121;-65
2021/10/19 00:14:48;;;;;;;3.42;0.95;;;-0.60;99.90;;;;;;5133268;27;20030;-65
2021/10/19 00:17:14;;;;;;;2.08;0.82;;;-0.60;99.90;;;;;;5132997;27;20031;-65
2021/10/19 00:19:40;;;;;;;3.10;0.95;;;-0.60;99.90;;;;;;5133227;27;20058;-65
2021/10/19 00:22:10;;;;;;;1.77;0.80;;;-0.60;99.90;;;;;;5133081;27;20482;-65
2021/10/19 00:24:39;;;;;;;1.52;0.80;;;-0.60;99.90;;;;;;5132016;27;20023;-65
2021/10/19 00:27:08;;;;;;;2.90;0.80;;;-0.70;99.90;;;;;;5131685;27;20486;-65
2021/10/19 00:29:33;;;;;;;2.92;0.70;;;-0.70;99.90;;;;;;5133030;28;20445;-65
2021/10/19 00:32:00;;;;;;;0.80;0.80;;;-0.70;99.90;;;;;;5132914;28;20073;-65
2021/10/19 00:34:26;;;;;;;0.60;0.60;;;-0.70;99.90;;;;;;5132814;28;20427;-65
2021/10/19 00:36:52;;;;;;;0.75;0.75;;;-0.70;99.90;;;;;;5132710;28;20050;-65
2021/10/19 00:39:21;;;;;;;0.98;0.73;;;-0.70;99.90;;;;;;5132810;28;20115;-65
2021/10/19 00:41:47;;;;;;;0.70;0.70;;;-0.70;99.90;;;;;;5132922;28;20055;-65
2021/10/19 00:44:13;;;;;;;3.30;0.70;;;-0.60;99.90;;;;;;5132825;28;20051;-65
2021/10/19 00:46:40;;;;;;;2.20;0.80;;;-0.60;99.90;;;;;;5132669;28;20031;-65
2021/10/19 00:49:06;;;;;;;0.60;0.60;;;-0.60;99.90;;;;;;5132845;28;20379;-65
2021/10/19 00:51:32;;;;;;;1.00;0.75;;;-0.70;99.90;;;;;;5133125;28;20020;-65
2021/10/19 00:53:58;;;;;;;0.85;0.77;;;-0.60;99.90;;;;;;5132681;28;20020;-65
2021/10/19 00:56:24;;;;;;;0.65;0.65;;;-0.70;99.90;;;;;;5132909;28;20020;-65
2021/10/19 00:58:50;;;;;;;2.72;0.80;;;-0.70;99.90;;;;;;5132751;28;20635;-65
2021/10/19 01:01:18;;;;;;;0.98;0.88;;;-0.70;99.90;;;;;;5132805;28;20106;-65
2021/10/19 01:03:44;;;;;;;1.25;0.70;;;-0.70;99.90;;;;;;5132904;28;20060;-65
2021/10/19 01:06:12;;;;;;;1.13;0.80;;;-0.70;99.90;;;;;;5132869;28;20027;-65
2021/10/19 01:08:39;;;;;;;1.40;0.80;;;-0.80;99.90;;;;;;5132805;27;20345;-65
2021/10/19 01:11:06;;;;;;;1.60;0.90;;;-0.80;99.90;;;;;;5136733;27;20034;-65
2021/10/19 01:13:32;;;;;;;2.80;0.80;;;-0.80;99.90;;;;;;5136688;27;20027;-65
2021/10/19 01:16:07;;;;;;;0.75;0.70;;;-0.80;99.90;;;;;;5136677;27;20015;-65
2021/10/19 01:18:33;;;;;;;1.83;0.98;;;-0.80;99.90;;;;;;5136623;27;20015;-65
2021/10/19 01:20:59;;;;;;;0.75;0.68;;;-0.80;99.90;;;;;;5136557;27;20059;-65
2021/10/19 01:23:26;;;;;;;1.15;0.77;;;-0.90;99.90;;;;;;5136331;27;20091;-65
2021/10/19 01:25:52;;;;;;;2.38;0.80;;;-0.90;99.90;;;;;;5136714;27;20360;-65
2021/10/19 01:28:19;;;;;;;1.20;0.80;;;-0.90;99.90;;;;;;5136138;27;20063;-65
2021/10/19 01:30:51;;;;;;;1.10;0.60;;;-0.90;99.90;;;;;;5135034;27;20045;-64
2021/10/19 01:33:17;;;;;;;0.80;0.80;;;-1.00;99.90;;;;;;5136605;27;20023;-64
2021/10/19 01:35:46;;;;;;;1.35;0.80;;;-1.00;99.90;;;;;;5136321;27;20102;-64
2021/10/19 01:38:23;;;;;;;0.80;0.80;;;-1.10;99.90;;;;;;5135965;27;20039;-64
2021/10/19 01:40:52;;;;;;;1.85;0.82;;;-1.10;99.90;;;;;;5136196;27;20031;-64
2021/10/19 01:43:21;;;;;;;1.27;0.80;;;-1.20;99.90;;;;;;5135870;27;20019;-65
2021/10/19 01:46:04;;;;;;;2.10;0.80;;;-1.20;99.90;;;;;;5136047;27;20023;-65
2021/10/19 01:48:35;;;;;;;0.88;0.77;;;-1.20;99.90;;;;;;5135690;27;20490;-65
2021/10/19 01:51:00;;;;;;;;;;;-1.20;99.90;;;;;;5135117;27;20114;-65
2021/10/19 01:53:27;;;;;;;0.60;0.60;;;-1.20;99.90;;;;;;5135716;27;20327;-65
2021/10/19 01:55:57;;;;;;;1.25;0.75;;;-1.20;99.90;;;;;;5135798;27;20023;-65
2021/10/19 01:58:30;;;;;;;0.80;0.80;;;-1.30;99.90;;;;;;5135624;27;20049;-65
2021/10/19 02:00:58;;;;;;;1.52;0.90;;;-1.30;99.90;;;;;;5135826;27;20024;-65
2021/10/19 02:03:26;;;;;;;1.05;0.85;;;-1.30;99.90;;;;;;5135724;27;20015;-64
2021/10/19 02:05:52;;;;;;;2.15;1.00;;;-1.40;99.90;;;;;;5135619;27;20501;-65
2021/10/19 02:08:18;;;;;;;2.45;0.80;;;-1.40;99.90;;;;;;5135170;27;20134;-65
2021/10/19 02:10:44;;;;;;;1.05;0.80;;;-1.40;99.90;;;;;;5135578;27;20042;-65
2021/10/19 02:13:11;;;;;;;1.10;0.90;;;-1.50;99.90;;;;;;5135382;27;20494;-65
2021/10/19 02:15:38;;;;;;;1.73;0.82;;;-1.40;99.90;;;;;;5135741;27;20046;-65
2021/10/19 02:18:05;;;;;;;0.70;0.70;;;-1.40;99.90;;;;;;5135347;27;20474;-65
2021/10/19 02:20:31;;;;;;;0.98;0.88;;;-1.40;99.90;;;;;;5134860;27;20030;-65
2021/10/19 02:22:57;;;;;;;1.60;0.93;;;-1.40;99.90;;;;;;5135287;27;20098;-64
2021/10/19 02:54:28;;;;;;;1.20;0.70;;;-1.60;99.90;;;;;;5121246;27;20051;-65
2021/10/19 02:56:54;;;;;;;0.85;0.73;;;-1.60;99.90;;;;;;5134608;27;20072;-65
2021/10/19 02:59:22;;;;;;;0.88;0.70;;;-1.60;99.90;;;;;;5134592;27;20059;-65
2021/10/19 03:01:48;;;;;;;2.42;0.93;;;-1.70;99.90;;;;;;5134671;27;20024;-65
2021/10/19 03:04:14;;;;;;;0.90;0.77;;;-1.70;99.90;;;;;;5134442;27;20364;-65
2021/10/19 03:06:39;;;;;;;1.10;0.90;;;-1.70;99.90;;;;;;5134289;27;20019;-65
2021/10/19 03:09:05;;;;;;;2.03;0.90;;;-1.60;99.90;;;;;;5134468;27;20027;-65
2021/10/19 03:11:31;;;;;;;1.40;0.88;;;-1.70;99.90;;;;;;5134342;27;20576;-65
2021/10/19 03:13:57;;;;;;;1.48;0.80;;;-1.70;99.90;;;;;;5134297;27;20023;-65
2021/10/19 03:16:22;;;;;;;5.47;1.02;;;-1.70;99.90;;;;;;5134289;27;20015;-65
2021/10/19 03:18:49;;;;;;;3.42;1.00;;;-1.60;99.90;;;;;;5133973;27;20062;-65
2021/10/19 03:21:15;;;;;;;0.73;0.73;;;-1.60;99.90;;;;;;5134233;27;20022;-65
2021/10/19 03:23:41;;;;;;;1.27;0.85;;;-1.60;99.90;;;;;;5133953;27;20051;-65
2021/10/19 03:26:06;;;;;;;0.82;0.73;;;-1.60;99.90;;;;;;5134137;27;20050;-65
2021/10/19 03:28:32;;;;;;;2.17;0.90;;;-1.60;99.90;;;;;;5133842;27;20104;-65
2021/10/19 03:30:58;;;;;;;1.02;1.00;;;-1.70;99.90;;;;;;5133621;27;20026;-65
2021/10/19 03:33:24;;;;;;;2.38;0.98;;;-1.70;99.90;;;;;;5133553;27;20027;-65
2021/10/19 03:35:50;;;;;;;1.00;0.80;;;-1.70;99.90;;;;;;5133675;27;20050;-65
2021/10/19 03:38:15;;;;;;;1.15;0.80;;;-1.80;99.90;;;;;;5133701;27;20066;-65
2021/10/19 03:40:41;;;;;;;4.45;1.00;;;-1.80;99.90;;;;;;5133583;27;20019;-65
2021/10/19 03:43:07;;;;;;;1.33;1.05;;;-1.80;99.90;;;;;;5133714;27;20019;-65
2021/10/19 03:45:32;;;;;;;2.25;1.13;;;-1.80;99.90;;;;;;5133693;27;20046;-65
2021/10/19 03:47:58;;;;;;;1.13;1.10;;;-1.70;99.90;;;;;;5132023;27;20035;-65
2021/10/19 03:50:24;;;;;;;4.50;0.90;;;-1.70;99.90;;;;;;5133586;27;20026;-65
2021/10/19 03:52:50;;;;;;;1.77;0.77;;;-1.70;99.90;;;;;;5133320;27;20069;-67
2021/10/19 03:55:16;;;;;;;1.38;0.90;;;-1.70;99.90;;;;;;5133349;27;20047;-64
2021/10/19 03:57:41;;;;;;;1.67;1.02;;;-1.80;99.90;;;;;;5133223;27;20095;-64
2021/10/19 04:00:09;;;;;;;1.25;1.00;;;-1.80;99.90;;;;;;5133395;27;20470;-64
2021/10/19 04:02:35;;;;;;;1.15;0.82;;;-1.80;99.90;;;;;;5133391;27;20061;-64
2021/10/19 04:05:01;;;;;;;1.85;0.80;;;-1.90;99.90;;;;;;5133269;27;20035;-64
2021/10/19 04:07:26;;;;;;;0.93;0.75;;;-1.90;99.90;;;;;;5133315;27;20027;-64
2021/10/19 04:09:52;;;;;;;3.22;0.98;;;-2.00;99.90;;;;;;5133331;27;20470;-64
2021/10/19 04:12:18;;;;;;;1.70;0.90;;;-2.00;99.90;;;;;;5133591;27;20023;-63
2021/10/19 04:14:43;;;;;;;2.78;0.70;;;-2.10;99.90;;;;;;5133171;27;20031;-64
2021/10/19 04:17:09;;;;;;;0.85;0.85;;;-2.00;99.90;;;;;;5133276;27;20075;-64
2021/10/19 04:19:35;;;;;;;4.43;1.20;;;-2.10;99.90;;;;;;5133188;27;20037;-64
2021/10/19 04:22:00;;;;;;;1.25;1.13;;;-2.00;99.90;;;;;;5132977;27;20023;-65
2021/10/19 04:24:26;;;;;;;1.90;1.00;;;-2.00;99.90;;;;;;5133279;27;20604;-65
2021/10/19 04:26:52;;;;;;;2.10;1.13;;;-2.00;99.90;;;;;;5132696;27;20370;-64
2021/10/19 04:29:17;;;;;;;1.30;1.20;;;-1.90;99.90;;;;;;5133195;27;20016;-65
2021/10/19 04:31:43;;;;;;;1.10;1.10;;;-1.90;99.90;;;;;;5132847;28;20023;-64
2021/10/19 04:34:09;;;;;;;1.30;1.20;;;-1.90;99.90;;;;;;5132831;28;20023;-65
2021/10/19 04:36:35;;;;;;;6.25;1.58;;;-1.90;99.90;;;;;;5132872;28;20439;-64
2021/10/19 04:39:00;;;;;;;12.00;2.80;;;-2.00;99.90;;;;;;5132657;28;20019;-64
2021/10/19 04:41:28;;;;;;;5.80;1.80;;;-1.70;99.90;;;;;;5133107;28;20023;-65
2021/10/19 04:43:54;;;;;;;3.15;0.93;;;-0.70;99.90;;;;;;5134891;27;20015;-64
2021/10/19 04:46:20;;;;;;;1.58;1.00;;;-0.40;99.90;;;;;;5139433;27;20543;-64
2021/10/19 04:48:45;;;;;;;1.50;1.02;;;-0.70;99.90;;;;;;5153967;27;20037;-64
2021/10/19 04:51:11;;;;;;;1.75;1.13;;;-1.00;99.90;;;;;;5148489;27;20026;-64
2021/10/19 04:53:37;;;;;;;1.52;1.17;;;-1.20;99.90;;;;;;5146077;27;20378;-63
2021/10/19 04:56:06;;;;;;;2.53;1.00;;;-1.40;99.90;;;;;;5141449;27;20417;-64
2021/10/19 04:58:32;;;;;;;2.15;0.98;;;-1.50;99.90;;;;;;5146799;27;20018;-63
2021/10/19 05:00:58;;;;;;;3.20;0.98;;;-1.60;99.90;;;;;;5136522;27;20023;-63
2021/10/19 05:03:24;;;;;;;0.90;0.90;;;-1.60;99.90;;;;;;5145059;27;20023;-65
2021/10/19 05:05:50;;;;;;;0.93;0.93;;;-1.70;99.90;;;;;;5147432;27;20027;-64
2021/10/19 05:08:16;;;;;;;4.45;1.10;;;-1.70;99.90;;;;;;5145815;27;20085;-64
2021/10/19 05:10:45;;;;;;;3.63;1.42;;;-1.70;99.90;;;;;;5146554;27;20466;-64
2021/10/19 05:13:11;;;;;;;2.67;1.05;;;-1.70;99.90;;;;;;5145200;27;20050;-64
2021/10/19 05:15:37;;;;;;;2.08;1.00;;;-1.70;99.90;;;;;;5146588;27;20423;-64
2021/10/19 05:18:03;;;;;;;1.27;0.95;;;-1.80;99.90;;;;;;5141808;27;20023;-64
2021/10/19 05:20:29;;;;;;;2.22;1.05;;;-1.80;99.90;;;;;;5136375;27;20031;-64
2021/10/19 05:22:56;;;;;;;7.43;1.20;;;-1.90;99.90;;;;;;5136030;27;20031;-64
2021/10/19 05:25:23;;;;;;;4.40;1.00;;;-1.80;99.90;;;;;;5136223;27;20023;-63
2021/10/19 05:27:48;;;;;;;1.35;0.82;;;-1.30;99.90;;;;;;5136380;27;20549;-63
2021/10/19 05:30:15;;;;;;;2.13;1.15;;;-1.40;99.90;;;;;;5136599;27;20019;-63
2021/10/19 05:32:40;;;;;;;1.83;0.77;;;-1.50;99.90;;;;;;5135044;27;20027;-63
2021/10/19 05:35:06;;;;;;;2.00;1.02;;;-1.60;99.90;;;;;;5136096;27;20214;-63
2021/10/19 05:37:32;;;;;;;0.80;0.80;;;-1.70;99.90;;;;;;5136137;27;20029;-63
2021/10/19 05:39:58;;;;;;;0.85;0.77;;;-1.80;99.90;;;;;;5152465;27;20110;-63
2021/10/19 05:42:23;;;;;;;1.17;0.85;;;-1.80;99.90;;;;;;5156932;27;20486;-63
2021/10/19 05:44:49;;;;;;;1.00;0.88;;;-1.80;99.90;;;;;;5156384;27;20515;-63
2021/10/19 05:47:15;;;;;;;3.13;0.82;;;-1.90;99.90;;;;;;5156848;27;20038;-63
2021/10/19 05:49:41;;;;;;;1.33;1.17;;;-1.50;99.90;;;;;;5156634;27;20022;-64
2021/10/19 05:52:07;;;;;;;1.25;1.15;;;-1.40;99.90;;;;;;5156476;27;20026;-64
2021/10/19 05:54:33;;;;;;;1.20;0.80;;;-1.60;99.90;;;;;;5155472;27;20046;-64
2021/10/19 05:56:58;;;;;;;5.40;1.02;;;-1.80;99.90;;;;;;5156071;27;20018;-64
2021/10/19 05:59:24;;;;;;;5.47;1.95;;;-2.00;99.90;;;;;;5156310;27;20101;-64
2021/10/19 06:01:50;;;;;;;2.05;1.00;;;-1.70;99.90;;;;;;5156357;27;20019;-64
2021/10/19 06:04:16;;;;;;;1.02;1.00;;;-1.40;99.90;;;;;;5156575;27;20033;-63
2021/10/19 06:06:52;;;;;;;1.38;1.10;;;-1.50;99.90;;;;;;5152046;27;20412;-64
2021/10/19 06:09:17;;;;;;;1.08;0.90;;;-1.70;99.90;;;;;;5135278;27;20031;-64
2021/10/19 06:11:43;;;;;;;2.78;1.20;;;-1.90;99.90;;;;;;5135356;27;20033;-64
2021/10/19 06:14:09;;;;;;;1.27;1.00;;;-2.10;99.90;;;;;;5150521;27;20372;-64
2021/10/19 06:16:35;;;;;;;1.83;1.00;;;-2.10;99.90;;;;;;5154489;27;20023;-61
2021/10/19 06:19:00;;;;;;;1.20;1.10;;;-2.20;99.90;;;;;;5155347;27;20026;-61
2021/10/19 06:21:26;;;;;;;3.20;1.38;;;-2.10;99.90;;;;;;5155926;27;20022;-61
2021/10/19 06:23:52;;;;;;;3.15;1.60;;;-2.10;99.90;;;;;;5156089;27;20027;-60
2021/10/19 06:26:17;;;;;;;7.68;2.72;;;-2.10;99.90;;;;;;5155791;27;20019;-63
2021/10/19 06:28:43;;;;;;;8.55;3.00;;;-2.10;99.90;;;;;;5155662;27;20038;-62
2021/10/19 06:31:09;;;;;;;8.38;3.10;;;-2.10;99.90;;;;;;5155517;27;20481;-62
2021/10/19 06:33:36;;;;;;;4.10;2.00;;;-2.10;99.90;;;;;;5149233;27;20023;-62
2021/10/19 06:36:04;;;;;;;4.88;2.17;;;-2.10;99.90;;;;;;5114424;28;20051;-62
2021/10/19 06:38:30;;;;;;;3.33;2.10;;;-2.00;99.90;;;;;;5114617;28;20024;-62
2021/10/19 06:40:55;;;;;;;7.32;3.00;;;-2.10;99.90;;;;;;5119175;27;20076;-62
2021/10/19 06:43:21;;;;;;;9.52;3.08;;;-2.20;99.90;;;;;;5151423;27;20486;-61
2021/10/19 06:45:47;;;;;;;11.75;3.58;;;-2.20;99.90;;;;;;5146065;27;20031;-62
2021/10/19 06:48:12;;;;;;;7.50;2.78;;;-2.30;99.90;;;;;;5113923;28;20491;-63
2021/10/19 06:50:38;;;;;;;4.88;2.40;;;-2.30;99.90;;;;;;5114146;28;20107;-63
2021/10/19 06:53:04;;;;;;;5.05;2.08;;;-2.20;99.90;;;;;;5113993;28;20057;-62
2021/10/19 06:55:30;;;;;;;4.13;1.85;;;-2.20;99.90;;;;;;5114032;28;20126;-62
2021/10/19 06:57:55;;;;;;;3.35;1.88;;;-2.10;99.90;;;;;;5129705;27;20023;-62
2021/10/19 07:00:21;;;;;;;6.30;2.40;;;-2.20;99.90;;;;;;5153853;27;20405;-62
2021/10/19 07:02:47;;;;;;;7.40;2.65;;;-2.20;99.90;;;;;;5152354;27;20313;-62
2021/10/19 07:05:14;;;;;;;5.18;2.50;;;-2.20;99.90;;;;;;5154923;27;20040;-62
2021/10/19 07:07:41;;;;;;;8.30;2.55;;;-2.20;99.90;;;;;;5154072;27;20039;-62
2021/10/19 07:10:07;;;;;;;8.60;2.80;;;-2.20;99.90;;;;;;5154899;27;20042;-62
2021/10/19 07:12:36;;;;;;;4.53;2.40;;;-2.20;99.90;;;;;;5155002;27;20023;-62
2021/10/19 07:15:03;;;;;;;7.88;2.70;;;-2.10;99.90;;;;;;5137884;27;20019;-62
2021/10/19 07:17:29;;;;;;;6.18;2.33;;;-2.10;99.90;;;;;;5134178;27;20031;-62
2021/10/19 07:19:55;;;;;;;5.90;2.10;;;-2.10;99.90;;;;;;5133835;27;20474;-63
2021/10/19 07:22:21;;;;;;;6.03;1.73;;;-2.10;99.90;;;;;;5134316;27;20030;-62
2021/10/19 07:24:47;;;;;;;4.10;1.73;;;-1.90;99.90;;;;;;5153762;27;20419;-63
2021/10/19 07:27:12;;;;;;;2.63;1.42;;;-1.80;99.90;;;;;;5154704;27;20030;-63
2021/10/19 07:29:38;;;;;;;2.90;1.50;;;-1.80;99.90;;;;;;5151470;27;20045;-62
2021/10/19 07:32:05;;;;;;;2.88;1.30;;;-1.80;99.90;;;;;;5151524;27;20027;-62
2021/10/19 07:34:30;;;;;;;12.63;1.48;;;-1.80;99.90;;;;;;5154427;27;20069;-63
2021/10/19 07:36:57;;;;;;;5.05;1.00;;;-1.70;99.90;;;;;;5154380;27;20046;-62
2021/10/19 07:39:23;;;;;;;4.90;1.20;;;-1.70;99.90;;;;;;5154698;27;20087;-63
2021/10/19 07:41:49;;;;;;;1.85;1.00;;;-1.60;99.90;;;;;;5154425;27;20034;-62
2021/10/19 07:44:15;;;;;;;6.63;1.35;;;-1.60;99.90;;;;;;5154229;27;20018;-63
2021/10/19 07:46:41;;;;;;;3.10;0.90;;;-1.70;99.90;;;;;;5154476;27;20465;-62
2021/10/19 07:49:07;;;;;;;1.35;1.25;;;-1.70;99.90;;;;;;5154010;27;20049;-62
2021/10/19 07:51:33;;;;;;;3.13;1.25;;;-1.60;99.90;;;;;;5154234;27;20523;-62
2021/10/19 07:53:59;;;;;;;3.20;1.25;;;-1.60;99.90;;;;;;5153792;27;20048;-63
2021/10/19 07:56:24;;;;;;;1.65;1.08;;;-1.60;99.90;;;;;;5154110;27;20053;-62
2021/10/19 07:58:50;;;;;;;2.10;1.20;;;-1.60;99.90;;;;;;5154199;27;20023;-63
2021/10/19 08:01:17;;;;;;;0.90;0.90;;;-1.50;99.90;;;;;;5153834;27;20485;-62
2021/10/19 08:03:42;;;;;;;2.53;1.20;;;-1.50;99.90;;;;;;5154211;27;20023;-63
2021/10/19 08:06:08;;;;;;;6.25;1.13;;;-1.40;99.90;;;;;;5153796;27;20067;-62
2021/10/19 08:08:37;;;;;;;3.33;1.20;;;-1.40;99.90;;;;;;5154135;27;20026;-62
2021/10/19 08:11:04;;;;;;;2.70;1.10;;;-1.30;99.90;;;;;;5153948;27;20477;-62
2021/10/19 08:13:31;;;;;;;1.27;0.90;;;-1.20;99.90;;;;;;5154152;27;20027;-62
2021/10/19 08:15:56;;;;;;;1.67;0.90;;;-1.20;99.90;;;;;;5153646;27;20027;-62
2021/10/19 08:18:22;;;;;;;0.80;0.80;;;-1.20;99.90;;;;;;5148943;27;20034;-62
2021/10/19 08:20:48;;;;;;;7.90;1.02;;;-1.10;99.90;;;;;;5150103;27;20039;-62
2021/10/19 08:23:13;;;;;;;1.30;0.90;;;-1.10;99.90;;;;;;5152377;27;20427;-62
2021/10/19 08:25:40;;;;;;;1.52;0.98;;;-1.10;99.90;;;;;;5153661;27;20022;-62
2021/10/19 08:28:06;;;;;;;1.80;1.10;;;-1.00;99.90;;;;;;5152275;27;20498;-62
2021/10/19 08:30:32;;;;;;;2.45;1.10;;;-1.00;99.90;;;;;;5153543;27;20023;-62
2021/10/19 08:32:58;;;;;;;2.72;0.98;;;-1.00;99.90;;;;;;5147117;27;20531;-62
2021/10/19 08:35:24;;;;;;;4.05;1.00;;;-0.90;99.90;;;;;;5153614;27;20026;-63
2021/10/19 08:37:52;;;;;;;2.40;1.10;;;-0.80;99.90;;;;;;5146798;27;20035;-63
2021/10/19 08:40:20;;;;;;;2.08;0.90;;;-0.80;99.90;;;;;;5138408;27;20043;-63
2021/10/19 08:42:47;;;;;;;3.83;1.00;;;-0.80;99.90;;;;;;5133216;28;20031;-63
2021/10/19 08:45:16;;;;;;;4.45;1.23;;;-0.70;99.90;;;;;;5132736;28;20046;-63
2021/10/19 08:47:44;;;;;;;3.40;1.00;;;-0.70;99.90;;;;;;5132783;28;20038;-63
2021/10/19 08:50:12;;;;;;;2.30;1.05;;;-0.70;99.90;;;;;;5132524;28;20110;-63
2021/10/19 08:52:38;;;;;;;4.35;1.75;;;-0.60;99.90;;;;;;5132873;28;20036;-63
2021/10/19 08:55:05;;;;;;;8.48;3.20;;;-0.60;99.90;;;;;;5132341;28;20105;-64
2021/10/19 08:57:32;;;;;;;8.70;2.15;;;-0.60;99.90;;;;;;5131473;28;20035;-63
2021/10/19 08:59:58;;;;;;;4.55;2.15;;;-0.50;99.90;;;;;;5132358;28;20019;-63
2021/10/19 09:02:41;;;;;;;2.30;0.95;;;-0.50;99.90;;;;;;5134326;27;20027;-63
2021/10/19 09:05:17;;;;;;;1.83;1.25;;;-0.40;99.90;;;;;;5135245;27;20363;-62
2021/10/19 09:08:00;;;;;;;1.80;1.00;;;-0.40;99.90;;;;;;5131088;28;20062;-62
2021/10/19 09:10:37;;;;;;;1.60;1.02;;;-0.30;99.90;;;;;;5132731;28;20534;-62
2021/10/19 09:13:08;;;;;;;3.33;1.17;;;-0.30;99.90;;;;;;5132438;28;20080;-62
2021/10/19 09:15:36;;;;;;;7.10;1.20;;;-0.20;99.90;;;;;;5132441;28;20525;-62
2021/10/19 09:18:09;;;;;;;1.50;0.80;;;-0.20;99.90;;;;;;5132280;28;20031;-62
2021/10/19 09:20:39;;;;;;;3.55;1.15;;;-0.10;99.90;;;;;;5132554;28;20084;-62
2021/10/19 09:23:05;;;;;;;1.13;0.60;;;0.00;99.90;;;;;;5132134;28;20064;-63
2021/10/19 09:25:35;;;;;;;1.77;0.75;;;0.00;99.90;;;;;;5132375;28;20026;-63
2021/10/19 09:28:03;;;;;;;3.47;1.10;;;0.10;99.90;;;;;;5132207;28;20527;-63
2021/10/19 09:30:36;;;;;;;4.53;0.98;;;0.20;99.90;;;;;;5133747;27;20023;-63
2021/10/19 09:33:03;;;;;;;3.30;0.80;;;0.30;99.90;;;;;;5135994;27;20027;-63
2021/10/19 09:35:30;;;;;;;1.58;0.80;;;0.30;99.90;;;;;;5135773;27;20035;-63
2021/10/19 09:38:00;;;;;;;6.32;1.20;;;0.40;99.90;;;;;;5136104;27;20565;-63
2021/10/19 09:40:44;;;;;;;1.30;0.85;;;0.50;99.90;;;;;;5136181;27;20027;-63
2021/10/19 09:43:12;;;;;;;1.73;1.05;;;1.30;99.90;;;;;;5135900;27;20031;-63
2021/10/19 09:45:43;;;;;;;1.10;1.00;;;1.60;99.90;;;;;;5135768;27;20481;-63
2021/10/19 09:48:17;;;;;;;6.55;1.42;;;1.50;99.90;;;;;;5135173;27;20474;-63
2021/10/19 09:50:45;;;;;;;8.45;1.60;;;1.30;99.90;;;;;;5135246;27;20024;-63
2021/10/19 09:53:12;;;;;;;5.53;1.10;;;1.20;99.90;;;;;;5135489;27;20420;-63
2021/10/19 09:55:40;;;;;;;7.47;1.15;;;1.10;99.90;;;;;;5135388;27;20105;-63
2021/10/19 09:58:06;;;;;;;3.75;1.27;;;1.10;99.90;;;;;;5135577;27;20062;-63
2021/10/19 10:00:37;;;;;;;3.50;1.15;;;1.10;99.90;;;;;;5135638;27;20480;-63
2021/10/19 10:03:03;;;;;;;;;;;1.10;99.90;;;;;;5136246;27;20044;-63
2021/10/19 10:05:34;;;;;;;1.98;0.82;;;1.10;99.90;;;;;;5135705;27;19907;-63
2021/10/19 10:08:02;;;;;;;2.60;1.40;;;1.20;99.90;;;;;;5135442;27;20171;-63
2021/10/19 10:10:28;;;;;;;10.63;1.67;;;1.20;99.90;;;;;;5135406;27;20023;-63
2021/10/19 10:13:07;;;;;;;3.83;1.40;;;1.30;99.90;;;;;;5135303;27;20023;-63
2021/10/19 10:15:35;;;;;;;4.78;1.35;;;1.30;99.90;;;;;;5135208;27;20061;-63
2021/10/19 10:18:08;;;;;;;6.05;1.25;;;1.30;99.90;;;;;;5135470;27;20031;-63
2021/10/19 10:20:44;;;;;;;8.73;1.40;;;1.40;99.90;;;;;;5135178;27;20057;-63
2021/10/19 10:23:20;;;;;;;12.55;1.52;;;1.40;99.90;;;;;;5134972;27;20031;-63
2021/10/19 10:25:49;;;;;;;10.50;1.60;;;1.40;99.90;;;;;;5134944;27;20076;-63
2021/10/19 10:28:16;;;;;;;7.90;1.63;;;1.50;99.90;;;;;;5134768;27;20053;-63
2021/10/19 10:30:45;;;;;;;9.02;1.40;;;1.50;99.90;;;;;;5134981;27;20024;-63
2021/10/19 10:33:11;;;;;;;8.70;1.55;;;1.50;99.90;;;;;;5134909;27;20069;-63
2021/10/19 10:35:43;;;;;;;18.42;2.17;;;1.60;99.90;;;;;;5134900;27;20057;-63
2021/10/19 10:38:10;;;;;;;9.68;1.25;;;1.60;99.90;;;;;;5135279;27;20027;-63
2021/10/19 10:40:39;;;;;;;13.32;2.17;;;1.70;99.90;;;;;;5134591;27;20500;-63
2021/10/19 10:43:26;;;;;;;7.18;1.70;;;1.70;99.90;;;;;;5134793;27;20386;-63
2021/10/19 10:46:11;;;;;;;51.45;3.35;;;1.70;99.90;;;;;;5134619;27;20036;-63
2021/10/19 10:48:38;;;;;;;13.80;1.98;;;1.70;99.90;;;;;;5134559;27;20117;-63
2021/10/19 10:51:05;;;;;;;6.30;1.75;;;1.80;99.90;;;;;;5134428;27;20050;-63
2021/10/19 10:53:45;;;;;;;16.35;2.35;;;1.80;99.90;;;;;;5134682;27;20023;-63
2021/10/19 10:56:13;;;;;;;4.57;1.20;;;1.90;99.90;;;;;;5134337;27;20035;-63
2021/10/19 10:58:40;;;;;;;3.22;1.27;;;1.90;99.90;;;;;;5134483;27;20509;-63
2021/10/19 11:01:15;;;;;;;8.98;2.08;;;1.90;99.90;;;;;;5134524;27;20069;-63
2021/10/19 11:03:42;;;;;;;7.50;1.50;;;2.00;99.90;;;;;;5134377;27;20075;-64
2021/10/19 11:06:12;;;;;;;8.95;1.58;;;2.10;99.90;;;;;;5134152;27;20030;-63
2021/10/19 11:08:38;;;;;;;23.50;4.15;;;2.10;99.90;;;;;;5134259;27;20031;-63
2021/10/19 11:11:17;;;;;;;7.72;1.55;;;2.20;99.90;;;;;;5134265;27;20030;-64
2021/10/19 11:13:52;;;;;;;11.23;1.42;;;2.20;99.90;;;;;;5134489;27;20034;-63
2021/10/19 11:16:26;;;;;;;10.00;2.20;;;2.20;99.90;;;;;;5134048;27;20018;-63
2021/10/19 11:18:52;;;;;;;15.55;2.50;;;2.30;99.90;;;;;;5134344;27;20038;-64
2021/10/19 11:21:18;;;;;;;8.45;2.45;;;2.30;99.90;;;;;;5133904;27;20019;-63
2021/10/19 11:23:44;;;;;;;11.63;1.33;;;2.40;99.90;;;;;;5133935;27;20058;-63
2021/10/19 11:26:11;;;;;;;10.35;4.43;;;2.40;99.90;;;;;;5133811;27;20075;-63
2021/10/19 11:28:37;;;;;;;122.40;64.22;;;2.40;99.90;;;;;;5133880;27;20031;-63
2021/10/19 11:31:04;;;;;;;29.30;13.63;;;2.40;99.90;;;;;;5134023;27;20031;-63
2021/10/19 11:33:38;;;;;;;66.78;32.85;;;2.50;99.90;;;;;;5133781;27;20494;-61
2021/10/19 11:36:05;;;;;;;44.10;21.75;;;2.60;99.90;;;;;;5133900;27;20106;-63
2021/10/19 11:38:32;;;;;;;65.78;36.83;;;2.60;99.90;;;;;;5133824;27;20019;-63
2021/10/19 11:41:13;;;;;;;14.98;7.03;;;2.70;99.90;;;;;;5133553;27;20037;-64
2021/10/19 11:43:44;;;;;;;33.60;15.70;;;2.70;99.90;;;;;;5133612;27;20098;-63
2021/10/19 11:46:13;;;;;;;6.70;2.17;;;2.80;99.90;;;;;;5133420;27;20114;-61
2021/10/19 11:48:40;;;;;;;5.68;1.77;;;2.80;99.90;;;;;;5133478;27;20033;-61
2021/10/19 11:51:12;;;;;;;11.63;1.85;;;2.80;99.90;;;;;;5133123;27;20478;-61
2021/10/19 11:53:39;;;;;;;5.43;1.60;;;2.90;99.90;;;;;;5132738;27;20035;-62
2021/10/19 11:56:08;;;;;;;9.60;1.60;;;2.90;99.90;;;;;;5131850;27;20430;-62
2021/10/19 11:58:33;;;;;;;4.85;1.50;;;2.90;99.90;;;;;;5132962;27;20026;-62
2021/10/19 12:01:00;;;;;;;5.07;1.45;;;2.90;99.90;;;;;;5133079;27;20027;-62
2021/10/19 12:03:30;;;;;;;4.32;1.17;;;2.90;99.90;;;;;;5133125;27;20505;-61
2021/10/19 12:05:56;;;;;;;7.45;1.88;;;2.90;99.90;;;;;;5131831;27;20083;-62
2021/10/19 12:08:32;;;;;;;11.00;2.53;;;2.90;99.90;;;;;;5132630;27;20231;-64
2021/10/19 12:11:11;;;;;;;9.98;2.20;;;2.90;99.90;;;;;;5132901;27;20439;-64
2021/10/19 12:13:38;;;;;;;4.82;1.98;;;2.90;99.90;;;;;;5133420;27;20070;-64
2021/10/19 12:16:05;;;;;;;7.57;1.80;;;2.90;99.90;;;;;;5132820;27;20023;-63
2021/10/19 12:18:43;;;;;;;4.22;1.50;;;2.80;99.90;;;;;;5132661;27;20038;-64
2021/10/19 12:21:10;;;;;;;9.15;2.08;;;2.80;99.90;;;;;;5132731;27;20027;-62
2021/10/19 12:23:38;;;;;;;12.93;1.67;;;2.80;99.90;;;;;;5133222;27;20044;-62
2021/10/19 12:26:08;;;;;;;6.05;1.80;;;3.00;99.90;;;;;;5131727;27;20023;-62
2021/10/19 12:28:34;;;;;;;4.35;1.80;;;3.00;99.90;;;;;;5132873;27;20478;-62
2021/10/19 12:31:00;;;;;;;10.70;1.88;;;2.90;99.90;;;;;;5132962;27;20050;-62
2021/10/19 12:33:28;;;;;;;9.18;1.80;;;2.90;99.90;;;;;;5132929;27;20055;-62
2021/10/19 12:36:27;;;;;;;5.65;1.85;;;2.90;99.90;;;;;;5132729;28;20367;-62
2021/10/19 12:38:54;;;;;;;11.10;2.83;;;2.90;99.90;;;;;;5132800;27;20023;-62
2021/10/19 12:41:20;;;;;;;7.38;1.88;;;2.80;99.90;;;;;;5132553;28;20023;-63
2021/10/19 12:43:48;;;;;;;20.70;2.13;;;2.80;99.90;;;;;;5132814;28;20500;-65
2021/10/19 12:46:19;;;;;;;19.10;7.18;;;3.60;99.90;;;;;;5132549;28;20023;-63
2021/10/19 12:48:45;;;;;;;27.90;15.23;;;3.90;99.90;;;;;;5131477;28;20059;-63
2021/10/19 12:51:13;;;;;;;19.15;5.32;;;3.60;99.90;;;;;;5134498;27;20026;-63
2021/10/19 12:53:39;;;;;;;8.15;5.60;;;3.40;99.90;;;;;;5141711;27;20270;-65
2021/10/19 12:56:06;;;;;;;10.05;4.07;;;3.30;99.90;;;;;;5153271;27;20431;-63
2021/10/19 12:58:33;;;;;;;5.65;1.90;;;3.20;99.90;;;;;;5153551;27;20034;-60
2021/10/19 13:01:03;;;;;;;6.93;1.70;;;3.10;99.90;;;;;;5153300;27;20027;-59
2021/10/19 13:03:29;;;;;;;4.25;1.75;;;3.00;99.90;;;;;;5153274;27;20015;-64
2021/10/19 13:05:55;;;;;;;5.95;1.98;;;3.00;99.90;;;;;;5157317;27;20029;-62
2021/10/19 13:08:22;;;;;;;7.43;2.70;;;3.00;99.90;;;;;;5157397;27;20037;-63
2021/10/19 13:10:48;;;;;;;4.63;1.90;;;2.90;99.90;;;;;;5159221;27;20019;-62
2021/10/19 13:13:14;;;;;;;15.13;2.15;;;2.90;99.90;;;;;;5157371;27;20110;-62
2021/10/19 13:15:40;;;;;;;6.38;1.50;;;3.00;99.90;;;;;;5156580;27;20497;-63
2021/10/19 13:18:07;;;;;;;6.97;1.80;;;2.90;99.90;;;;;;5130249;27;20019;-62